Terminal Aerodrome Forecast
Issued by NWS

Home | Current Version | Previous Version | Text Only | Print | Product List | Glossary On
Versions: 1 2 3 4 5 6 7 8 9 10 11 12 13 14 15 16 17 18 19 20 21 22 23
655
FTUS43 KMQT 272338
TAFSAW
TAF
KSAW 272338Z 2800/2824 10006KT P6SM OVC080
     FM280400 13005KT 4SM -SHRA BR OVC025
     FM280800 14003KT 1SM BR OVC003
     FM281300 18003KT P6SM OVC003
     FM281600 19006KT P6SM OVC010
     FM281800 18007KT P6SM VCSH BKN025=

USA.gov is the U.S. government's official web portal to all federal, state and local government web resources and services.